Archival Weather

Vermilion Rgnl

Danville, Illinois (KDNV)

Report from: Tuesday, March 26, 2024 10:35 PM CDT
Current time: Sunday, July 14, 2024 5:21 AM CDT

Current weather – Weather history – Daily summaries
Weather forecast

Temperature3.5°C (38.3°F)
Wind chill-1.3°C (29.7°F)
Dew point0.7°C (33.3°F)
Winds 13 kts (6.7 m/s, 15 mph) West (270°)
Wind gusts 17 kts (8.7 m/s, 19.6 mph)
Visibility10 mi. (16.1 km)
Clouds Ceiling: Overcast 1,300 ft. (396 m)
Altimeter29.86 in.Hg (1011 mB)
Relative humidity82 %
Density altitude-1,227 ft. (-374 m)
Remarks Fully automated report
Automated weather observing station with precipitation discriminator
Flight conditions Marginal Visual Meteorological Conditions
Raw dataKDNV 270335Z AUTO 27013G17KT 10SM OVC013 04/01 A2986 RMK AO2 T00350007
An error has occurred. This application may no longer respond until reloaded. Reload 🗙